FTTJ

Details ICAO FTTJ (NDJ)
Name N'Diamena Hassan Djamous
Region Chad
Timezone Africa/Ndjamena (UTC+1.0)
Plans Departing 213
Arriving 213
Stats Elevation 967 ft / 295 m (AMSL)
Location 12.133700° 15.034000°
Runways 1
Magnetic Variation 1.320° E
Sunrise 2019-04-25 04:44:05 UTC / 2019-04-25 05:44:05 Local
Sunset 2019-04-25 17:13:59 UTC / 2019-04-25 18:13:59 Local
Advertisement - Login to hide

Runways

ID Width Length Bearing (true/mag) Surface Threshold Overrun Markings Lighting
05 148 ft / 45 m 9,219 ft / 2,810 m 45.73° / 44.41° ASPHALT 0 ft / 0 m 0 ft / 0 m PREC-APP CENTERLINE EDGE THRESHOLD MALS TDZ REIL-UNI
23 148 ft / 45 m 9,219 ft / 2,810 m 225.74° / 224.42° ASPHALT 0 ft / 0 m 0 ft / 0 m PREC-APP CENTERLINE EDGE THRESHOLD TDZ REIL-UNI

Approach Navaids

Runway Type Ident Frequency Range Bearing (true/mag) Slope Elevation
05 LOC-ILS IFL 109.90 MHz 18 nm / 33 km 45.80° / 44.48° - 968 ft / 295 m (AMSL)
05 GS IFL 109.90 MHz 10 nm / 19 km 46.44° / 45.12° 3.00° 968 ft / 295 m (AMSL)

Map

Weather


0- 5 10 15 20 25 30 35+ Temperature / °C

Clouds and Precipitation
Forecast for 2019-04-25 06:00 UTC. Updated 2 hours ago

Ground ~20,000 ft ~40,000 ft Winds

METAR

FTTJ 250500Z VRB03KT CAVOK 26/M04 Q1010 NOSIG

TAF

TAF FTTJ 242300Z 2500/2606 VRB04KT 8000 NSW TEMPO 2508/2514 10010KT BECMG 2518/2520 3500 DU

Frequencies

Recorded 120.50 MHz ATIS
Tower 119.70 MHz
Warning: Do not use this data for real-world aviation or navigation. No guarantee of current accuracy is given.